Marine, Minnesota
Current Conditions -  °F | °C
As of 4:35 AM on Saturday 22 Nov 2014 (Local Time) from KRNH Reporting Station
Haze Haze  
Wind Chill: 26°   Ceiling: 600
Heat Index: 35°   Visibility: 4mi
Dew Point: 34°   Wind: 13mph
Humidity: 97%   Direction: 200°SSW
Pressure: 29.79"   Gusts: NA
Location:  45.1574°N, 92.7623°W
Report Text: KRNH 221035Z AUTO 20011KT 4SM BR OVC006 02/01 A2979 RMK AO2 T00150010
Loading
Personal Weather Stations






























Interactive Weather Map New forecast layout! Learn more

10-Day Weather Forecast

Advertisements
Track Severe Weather on mobile